sensor_id;sensor_type;location;lat;lon;timestamp;P1;durP1;ratioP1;P2;durP2;ratioP2
7517;SDS011;3800;48.922;9.444;2022-10-31T00:00:19;9.10;;;5.33;;
7517;SDS011;3800;48.922;9.444;2022-10-31T00:02:47;6.03;;;5.00;;
7517;SDS011;3800;48.922;9.444;2022-10-31T00:05:14;8.37;;;5.27;;
7517;SDS011;3800;48.922;9.444;2022-10-31T00:07:42;7.90;;;5.27;;
7517;SDS011;3800;48.922;9.444;2022-10-31T00:10:10;6.43;;;5.80;;
7517;SDS011;3800;48.922;9.444;2022-10-31T00:12:37;7.83;;;6.03;;
7517;SDS011;3800;48.922;9.444;2022-10-31T00:15:05;6.23;;;5.40;;
7517;SDS011;3800;48.922;9.444;2022-10-31T00:17:34;9.03;;;5.37;;
7517;SDS011;3800;48.922;9.444;2022-10-31T00:20:01;6.83;;;5.53;;
7517;SDS011;3800;48.922;9.444;2022-10-31T00:22:29;9.77;;;6.50;;
7517;SDS011;3800;48.922;9.444;2022-10-31T00:24:57;8.87;;;6.40;;
7517;SDS011;3800;48.922;9.444;2022-10-31T00:27:25;10.47;;;7.10;;
7517;SDS011;3800;48.922;9.444;2022-10-31T00:29:52;8.07;;;6.80;;
7517;SDS011;3800;48.922;9.444;2022-10-31T00:32:21;9.40;;;6.40;;
7517;SDS011;3800;48.922;9.444;2022-10-31T00:34:48;9.87;;;6.00;;
7517;SDS011;3800;48.922;9.444;2022-10-31T00:37:16;6.67;;;5.80;;
7517;SDS011;3800;48.922;9.444;2022-10-31T00:39:44;8.13;;;6.13;;
7517;SDS011;3800;48.922;9.444;2022-10-31T00:42:12;8.00;;;5.33;;
7517;SDS011;3800;48.922;9.444;2022-10-31T00:44:40;6.30;;;5.70;;
7517;SDS011;3800;48.922;9.444;2022-10-31T00:47:07;6.30;;;5.07;;
7517;SDS011;3800;48.922;9.444;2022-10-31T00:49:35;6.47;;;5.70;;
7517;SDS011;3800;48.922;9.444;2022-10-31T00:52:03;7.73;;;6.17;;
7517;SDS011;3800;48.922;9.444;2022-10-31T00:54:32;8.07;;;5.63;;
7517;SDS011;3800;48.922;9.444;2022-10-31T00:56:59;7.40;;;5.73;;
7517;SDS011;3800;48.922;9.444;2022-10-31T00:59:27;8.17;;;6.07;;
7517;SDS011;3800;48.922;9.444;2022-10-31T01:01:55;8.17;;;5.93;;
7517;SDS011;3800;48.922;9.444;2022-10-31T01:04:22;7.30;;;5.67;;
7517;SDS011;3800;48.922;9.444;2022-10-31T01:06:50;8.67;;;5.80;;
7517;SDS011;3800;48.922;9.444;2022-10-31T01:09:17;8.93;;;6.40;;
7517;SDS011;3800;48.922;9.444;2022-10-31T01:11:45;6.13;;;5.53;;
7517;SDS011;3800;48.922;9.444;2022-10-31T01:14:13;7.30;;;6.07;;
7517;SDS011;3800;48.922;9.444;2022-10-31T01:16:41;6.43;;;5.63;;
7517;SDS011;3800;48.922;9.444;2022-10-31T01:19:10;6.43;;;5.70;;
7517;SDS011;3800;48.922;9.444;2022-10-31T01:21:37;7.37;;;5.40;;
7517;SDS011;3800;48.922;9.444;2022-10-31T01:24:05;9.70;;;6.43;;
7517;SDS011;3800;48.922;9.444;2022-10-31T01:26:33;7.73;;;6.00;;
7517;SDS011;3800;48.922;9.444;2022-10-31T01:29:03;7.87;;;6.07;;
7517;SDS011;3800;48.922;9.444;2022-10-31T01:31:30;7.47;;;6.20;;
7517;SDS011;3800;48.922;9.444;2022-10-31T01:33:57;6.80;;;5.60;;
7517;SDS011;3800;48.922;9.444;2022-10-31T01:36:26;6.33;;;5.17;;
7517;SDS011;3800;48.922;9.444;2022-10-31T01:38:53;7.63;;;5.80;;
7517;SDS011;3800;48.922;9.444;2022-10-31T01:41:21;6.27;;;5.53;;
7517;SDS011;3800;48.922;9.444;2022-10-31T01:43:50;6.77;;;5.20;;
7517;SDS011;3800;48.922;9.444;2022-10-31T01:46:20;6.70;;;5.33;;
7517;SDS011;3800;48.922;9.444;2022-10-31T01:48:45;5.37;;;4.87;;
7517;SDS011;3800;48.922;9.444;2022-10-31T01:51:13;7.10;;;4.90;;
7517;SDS011;3800;48.922;9.444;2022-10-31T01:53:41;5.97;;;4.80;;
7517;SDS011;3800;48.922;9.444;2022-10-31T01:56:09;6.77;;;4.90;;
7517;SDS011;3800;48.922;9.444;2022-10-31T01:58:37;6.07;;;4.70;;
7517;SDS011;3800;48.922;9.444;2022-10-31T02:01:04;7.30;;;5.50;;
7517;SDS011;3800;48.922;9.444;2022-10-31T02:03:32;6.40;;;5.13;;
7517;SDS011;3800;48.922;9.444;2022-10-31T02:06:00;8.50;;;5.30;;
7517;SDS011;3800;48.922;9.444;2022-10-31T02:08:28;6.13;;;4.67;;
7517;SDS011;3800;48.922;9.444;2022-10-31T02:10:56;5.23;;;4.73;;
7517;SDS011;3800;48.922;9.444;2022-10-31T02:13:24;7.57;;;5.60;;
7517;SDS011;3800;48.922;9.444;2022-10-31T02:15:54;8.37;;;5.43;;
7517;SDS011;3800;48.922;9.444;2022-10-31T02:18:20;6.20;;;5.20;;
7517;SDS011;3800;48.922;9.444;2022-10-31T02:21:07;7.10;;;4.40;;
7517;SDS011;3800;48.922;9.444;2022-10-31T02:23:48;6.90;;;5.13;;
7517;SDS011;3800;48.922;9.444;2022-10-31T02:26:17;5.40;;;4.90;;
7517;SDS011;3800;48.922;9.444;2022-10-31T02:28:47;6.03;;;4.77;;
7517;SDS011;3800;48.922;9.444;2022-10-31T02:33:51;5.33;;;4.50;;
7517;SDS011;3800;48.922;9.444;2022-10-31T02:36:22;4.90;;;4.17;;
7517;SDS011;3800;48.922;9.444;2022-10-31T02:39:41;7.93;;;4.50;;
7517;SDS011;3800;48.922;9.444;2022-10-31T02:42:01;4.30;;;3.90;;
7517;SDS011;3800;48.922;9.444;2022-10-31T02:47:06;5.80;;;4.80;;
7517;SDS011;3800;48.922;9.444;2022-10-31T02:49:36;6.33;;;4.60;;
7517;SDS011;3800;48.922;9.444;2022-10-31T02:52:01;5.63;;;4.70;;
7517;SDS011;3800;48.922;9.444;2022-10-31T02:54:29;6.30;;;4.67;;
7517;SDS011;3800;48.922;9.444;2022-10-31T02:56:59;5.00;;;4.60;;
7517;SDS011;3800;48.922;9.444;2022-10-31T02:59:25;5.13;;;4.70;;
7517;SDS011;3800;48.922;9.444;2022-10-31T03:01:56;5.67;;;4.70;;
7517;SDS011;3800;48.922;9.444;2022-10-31T03:04:28;6.00;;;4.70;;
7517;SDS011;3800;48.922;9.444;2022-10-31T03:06:58;5.57;;;4.70;;
7517;SDS011;3800;48.922;9.444;2022-10-31T03:09:31;9.13;;;5.23;;
7517;SDS011;3800;48.922;9.444;2022-10-31T03:11:58;6.43;;;4.83;;
7517;SDS011;3800;48.922;9.444;2022-10-31T03:14:26;6.80;;;5.00;;
7517;SDS011;3800;48.922;9.444;2022-10-31T03:17:07;5.37;;;4.47;;
7517;SDS011;3800;48.922;9.444;2022-10-31T03:19:39;5.10;;;4.60;;
7517;SDS011;3800;48.922;9.444;2022-10-31T03:22:10;6.17;;;4.57;;
7517;SDS011;3800;48.922;9.444;2022-10-31T03:24:50;4.97;;;4.33;;
7517;SDS011;3800;48.922;9.444;2022-10-31T03:27:19;4.10;;;3.70;;
7517;SDS011;3800;48.922;9.444;2022-10-31T03:29:46;4.47;;;3.73;;
7517;SDS011;3800;48.922;9.444;2022-10-31T03:32:16;5.10;;;4.00;;
7517;SDS011;3800;48.922;9.444;2022-10-31T03:34:43;4.87;;;3.83;;
7517;SDS011;3800;48.922;9.444;2022-10-31T03:37:11;4.00;;;3.70;;
7517;SDS011;3800;48.922;9.444;2022-10-31T03:39:38;4.30;;;4.00;;
7517;SDS011;3800;48.922;9.444;2022-10-31T03:42:07;4.30;;;3.90;;
7517;SDS011;3800;48.922;9.444;2022-10-31T03:44:33;4.67;;;4.20;;
7517;SDS011;3800;48.922;9.444;2022-10-31T03:47:01;8.33;;;4.37;;
7517;SDS011;3800;48.922;9.444;2022-10-31T03:49:28;5.37;;;4.63;;
7517;SDS011;3800;48.922;9.444;2022-10-31T03:52:02;5.20;;;4.70;;
7517;SDS011;3800;48.922;9.444;2022-10-31T03:54:35;5.20;;;4.70;;
7517;SDS011;3800;48.922;9.444;2022-10-31T03:57:06;5.87;;;4.80;;
7517;SDS011;3800;48.922;9.444;2022-10-31T03:59:36;5.13;;;4.53;;
7517;SDS011;3800;48.922;9.444;2022-10-31T04:02:05;5.70;;;5.10;;
7517;SDS011;3800;48.922;9.444;2022-10-31T04:04:30;7.10;;;5.70;;
7517;SDS011;3800;48.922;9.444;2022-10-31T04:06:58;6.70;;;5.57;;
7517;SDS011;3800;48.922;9.444;2022-10-31T04:09:26;7.17;;;6.13;;
7517;SDS011;3800;48.922;9.444;2022-10-31T04:11:54;6.63;;;5.70;;
7517;SDS011;3800;48.922;9.444;2022-10-31T04:14:22;6.53;;;5.13;;
7517;SDS011;3800;48.922;9.444;2022-10-31T04:16:49;8.33;;;5.30;;
7517;SDS011;3800;48.922;9.444;2022-10-31T04:19:16;6.87;;;4.93;;
7517;SDS011;3800;48.922;9.444;2022-10-31T04:21:44;5.90;;;4.70;;
7517;SDS011;3800;48.922;9.444;2022-10-31T04:24:11;6.87;;;4.80;;
7517;SDS011;3800;48.922;9.444;2022-10-31T04:26:39;5.97;;;5.37;;
7517;SDS011;3800;48.922;9.444;2022-10-31T04:29:07;6.43;;;4.87;;
7517;SDS011;3800;48.922;9.444;2022-10-31T04:31:34;7.90;;;4.37;;
7517;SDS011;3800;48.922;9.444;2022-10-31T04:34:02;5.63;;;5.10;;
7517;SDS011;3800;48.922;9.444;2022-10-31T04:36:30;5.77;;;4.53;;
7517;SDS011;3800;48.922;9.444;2022-10-31T04:38:57;6.23;;;4.70;;
7517;SDS011;3800;48.922;9.444;2022-10-31T04:41:25;7.47;;;4.87;;
7517;SDS011;3800;48.922;9.444;2022-10-31T04:43:53;7.83;;;5.10;;
7517;SDS011;3800;48.922;9.444;2022-10-31T04:46:20;6.13;;;5.53;;
7517;SDS011;3800;48.922;9.444;2022-10-31T04:48:48;6.70;;;5.30;;
7517;SDS011;3800;48.922;9.444;2022-10-31T04:51:15;6.70;;;4.73;;
7517;SDS011;3800;48.922;9.444;2022-10-31T04:53:43;10.47;;;5.73;;
7517;SDS011;3800;48.922;9.444;2022-10-31T04:56:11;7.03;;;5.30;;
7517;SDS011;3800;48.922;9.444;2022-10-31T04:58:38;6.17;;;5.13;;
7517;SDS011;3800;48.922;9.444;2022-10-31T05:01:06;7.17;;;6.07;;
7517;SDS011;3800;48.922;9.444;2022-10-31T05:03:34;7.90;;;6.03;;
7517;SDS011;3800;48.922;9.444;2022-10-31T05:06:02;6.03;;;5.43;;
7517;SDS011;3800;48.922;9.444;2022-10-31T05:08:30;6.00;;;4.93;;
7517;SDS011;3800;48.922;9.444;2022-10-31T05:11:00;8.70;;;5.50;;
7517;SDS011;3800;48.922;9.444;2022-10-31T05:13:28;6.23;;;5.17;;
7517;SDS011;3800;48.922;9.444;2022-10-31T05:15:55;5.50;;;4.87;;
7517;SDS011;3800;48.922;9.444;2022-10-31T05:18:23;7.20;;;5.50;;
7517;SDS011;3800;48.922;9.444;2022-10-31T05:20:50;6.80;;;5.53;;
7517;SDS011;3800;48.922;9.444;2022-10-31T05:23:18;8.43;;;5.47;;
7517;SDS011;3800;48.922;9.444;2022-10-31T05:25:46;6.23;;;5.63;;
7517;SDS011;3800;48.922;9.444;2022-10-31T05:28:13;6.60;;;5.57;;
7517;SDS011;3800;48.922;9.444;2022-10-31T05:30:41;8.17;;;5.70;;
7517;SDS011;3800;48.922;9.444;2022-10-31T05:33:09;7.13;;;5.67;;
7517;SDS011;3800;48.922;9.444;2022-10-31T05:35:36;8.00;;;6.30;;
7517;SDS011;3800;48.922;9.444;2022-10-31T05:38:05;9.80;;;5.57;;
7517;SDS011;3800;48.922;9.444;2022-10-31T05:40:32;5.60;;;4.70;;
7517;SDS011;3800;48.922;9.444;2022-10-31T05:43:00;8.30;;;5.90;;
7517;SDS011;3800;48.922;9.444;2022-10-31T05:45:27;9.77;;;5.20;;
7517;SDS011;3800;48.922;9.444;2022-10-31T05:47:57;6.10;;;5.50;;
7517;SDS011;3800;48.922;9.444;2022-10-31T05:50:25;7.17;;;5.20;;
7517;SDS011;3800;48.922;9.444;2022-10-31T05:52:53;5.83;;;5.23;;
7517;SDS011;3800;48.922;9.444;2022-10-31T05:55:20;7.20;;;5.53;;
7517;SDS011;3800;48.922;9.444;2022-10-31T05:57:48;7.07;;;6.03;;
7517;SDS011;3800;48.922;9.444;2022-10-31T06:00:16;7.43;;;6.00;;
7517;SDS011;3800;48.922;9.444;2022-10-31T06:02:43;7.40;;;5.83;;
7517;SDS011;3800;48.922;9.444;2022-10-31T06:05:11;6.97;;;6.03;;
7517;SDS011;3800;48.922;9.444;2022-10-31T06:07:39;7.77;;;5.50;;
7517;SDS011;3800;48.922;9.444;2022-10-31T06:10:07;8.03;;;6.13;;
7517;SDS011;3800;48.922;9.444;2022-10-31T06:12:35;6.57;;;5.83;;
7517;SDS011;3800;48.922;9.444;2022-10-31T06:15:04;6.67;;;5.60;;
7517;SDS011;3800;48.922;9.444;2022-10-31T06:17:32;5.87;;;5.33;;
7517;SDS011;3800;48.922;9.444;2022-10-31T06:19:59;5.97;;;4.90;;
7517;SDS011;3800;48.922;9.444;2022-10-31T06:22:27;4.60;;;4.10;;
7517;SDS011;3800;48.922;9.444;2022-10-31T06:24:54;5.57;;;4.83;;
7517;SDS011;3800;48.922;9.444;2022-10-31T06:27:22;5.30;;;4.80;;
7517;SDS011;3800;48.922;9.444;2022-10-31T06:29:50;10.10;;;6.27;;
7517;SDS011;3800;48.922;9.444;2022-10-31T06:32:17;10.37;;;6.17;;
7517;SDS011;3800;48.922;9.444;2022-10-31T06:34:45;7.97;;;6.07;;
7517;SDS011;3800;48.922;9.444;2022-10-31T06:37:13;10.23;;;6.27;;
7517;SDS011;3800;48.922;9.444;2022-10-31T06:39:40;9.60;;;6.33;;
7517;SDS011;3800;48.922;9.444;2022-10-31T06:42:08;11.10;;;6.93;;
7517;SDS011;3800;48.922;9.444;2022-10-31T06:44:35;11.23;;;7.03;;
7517;SDS011;3800;48.922;9.444;2022-10-31T06:47:03;11.17;;;7.93;;
7517;SDS011;3800;48.922;9.444;2022-10-31T06:49:31;12.07;;;8.10;;
7517;SDS011;3800;48.922;9.444;2022-10-31T06:51:58;14.73;;;8.20;;
7517;SDS011;3800;48.922;9.444;2022-10-31T06:54:26;18.53;;;9.10;;
7517;SDS011;3800;48.922;9.444;2022-10-31T06:56:54;11.73;;;8.90;;
7517;SDS011;3800;48.922;9.444;2022-10-31T06:59:21;15.07;;;9.30;;
7517;SDS011;3800;48.922;9.444;2022-10-31T07:01:49;17.63;;;10.67;;
7517;SDS011;3800;48.922;9.444;2022-10-31T07:04:17;16.23;;;9.80;;
7517;SDS011;3800;48.922;9.444;2022-10-31T07:06:44;14.93;;;9.10;;
7517;SDS011;3800;48.922;9.444;2022-10-31T07:09:12;10.30;;;8.80;;
7517;SDS011;3800;48.922;9.444;2022-10-31T07:11:40;12.87;;;9.27;;
7517;SDS011;3800;48.922;9.444;2022-10-31T07:14:07;14.13;;;9.67;;
7517;SDS011;3800;48.922;9.444;2022-10-31T07:16:35;12.47;;;9.60;;
7517;SDS011;3800;48.922;9.444;2022-10-31T07:19:02;13.00;;;9.00;;
7517;SDS011;3800;48.922;9.444;2022-10-31T07:21:30;12.73;;;8.97;;
7517;SDS011;3800;48.922;9.444;2022-10-31T07:23:58;11.13;;;9.00;;
7517;SDS011;3800;48.922;9.444;2022-10-31T07:26:25;11.40;;;8.03;;
7517;SDS011;3800;48.922;9.444;2022-10-31T07:28:53;12.77;;;9.03;;
7517;SDS011;3800;48.922;9.444;2022-10-31T07:31:21;13.60;;;9.53;;
7517;SDS011;3800;48.922;9.444;2022-10-31T07:33:48;13.17;;;9.97;;
7517;SDS011;3800;48.922;9.444;2022-10-31T07:36:17;12.90;;;9.70;;
7517;SDS011;3800;48.922;9.444;2022-10-31T07:38:44;12.50;;;9.13;;
7517;SDS011;3800;48.922;9.444;2022-10-31T07:41:12;14.47;;;9.67;;
7517;SDS011;3800;48.922;9.444;2022-10-31T07:43:40;10.17;;;8.63;;
7517;SDS011;3800;48.922;9.444;2022-10-31T07:46:07;10.07;;;7.97;;
7517;SDS011;3800;48.922;9.444;2022-10-31T07:48:35;11.87;;;9.83;;
7517;SDS011;3800;48.922;9.444;2022-10-31T07:51:02;15.53;;;10.33;;
7517;SDS011;3800;48.922;9.444;2022-10-31T07:53:30;12.17;;;10.90;;
7517;SDS011;3800;48.922;9.444;2022-10-31T07:55:58;12.30;;;9.30;;
7517;SDS011;3800;48.922;9.444;2022-10-31T07:58:25;11.40;;;9.30;;
7517;SDS011;3800;48.922;9.444;2022-10-31T08:00:53;10.83;;;9.60;;
7517;SDS011;3800;48.922;9.444;2022-10-31T08:03:21;12.17;;;7.80;;
7517;SDS011;3800;48.922;9.444;2022-10-31T08:05:48;10.00;;;7.87;;
7517;SDS011;3800;48.922;9.444;2022-10-31T08:08:16;12.27;;;8.43;;
7517;SDS011;3800;48.922;9.444;2022-10-31T08:10:44;10.53;;;8.33;;
7517;SDS011;3800;48.922;9.444;2022-10-31T08:13:12;12.27;;;9.07;;
7517;SDS011;3800;48.922;9.444;2022-10-31T08:15:39;13.33;;;9.30;;
7517;SDS011;3800;48.922;9.444;2022-10-31T08:18:10;12.80;;;8.23;;
7517;SDS011;3800;48.922;9.444;2022-10-31T08:20:42;12.43;;;8.30;;
7517;SDS011;3800;48.922;9.444;2022-10-31T08:23:09;12.43;;;9.37;;
7517;SDS011;3800;48.922;9.444;2022-10-31T08:25:37;10.50;;;8.30;;
7517;SDS011;3800;48.922;9.444;2022-10-31T08:28:05;10.83;;;9.00;;
7517;SDS011;3800;48.922;9.444;2022-10-31T08:30:33;14.87;;;8.53;;
7517;SDS011;3800;48.922;9.444;2022-10-31T08:33:02;9.63;;;7.67;;
7517;SDS011;3800;48.922;9.444;2022-10-31T08:35:29;9.60;;;7.93;;
7517;SDS011;3800;48.922;9.444;2022-10-31T08:37:56;10.30;;;7.67;;
7517;SDS011;3800;48.922;9.444;2022-10-31T08:40:24;10.10;;;7.80;;
7517;SDS011;3800;48.922;9.444;2022-10-31T08:42:55;9.80;;;8.30;;
7517;SDS011;3800;48.922;9.444;2022-10-31T08:45:23;9.90;;;8.13;;
7517;SDS011;3800;48.922;9.444;2022-10-31T08:47:51;8.43;;;7.30;;
7517;SDS011;3800;48.922;9.444;2022-10-31T08:50:19;9.47;;;8.43;;
7517;SDS011;3800;48.922;9.444;2022-10-31T08:52:46;9.63;;;8.20;;
7517;SDS011;3800;48.922;9.444;2022-10-31T08:55:14;8.53;;;7.60;;
7517;SDS011;3800;48.922;9.444;2022-10-31T08:57:42;8.73;;;7.37;;
7517;SDS011;3800;48.922;9.444;2022-10-31T09:00:09;10.13;;;6.77;;
7517;SDS011;3800;48.922;9.444;2022-10-31T09:02:37;8.70;;;7.60;;
7517;SDS011;3800;48.922;9.444;2022-10-31T09:05:05;15.37;;;10.93;;
7517;SDS011;3800;48.922;9.444;2022-10-31T09:07:33;9.80;;;8.07;;
7517;SDS011;3800;48.922;9.444;2022-10-31T09:10:00;10.07;;;6.93;;
7517;SDS011;3800;48.922;9.444;2022-10-31T09:12:28;10.90;;;7.93;;
7517;SDS011;3800;48.922;9.444;2022-10-31T09:14:56;9.10;;;7.70;;
7517;SDS011;3800;48.922;9.444;2022-10-31T09:17:23;9.03;;;7.87;;
7517;SDS011;3800;48.922;9.444;2022-10-31T09:19:51;12.40;;;8.43;;
7517;SDS011;3800;48.922;9.444;2022-10-31T09:22:19;9.23;;;8.33;;
7517;SDS011;3800;48.922;9.444;2022-10-31T09:24:48;11.87;;;8.93;;
7517;SDS011;3800;48.922;9.444;2022-10-31T09:27:15;14.50;;;8.83;;
7517;SDS011;3800;48.922;9.444;2022-10-31T09:29:44;11.40;;;8.90;;
7517;SDS011;3800;48.922;9.444;2022-10-31T09:32:11;11.80;;;9.27;;
7517;SDS011;3800;48.922;9.444;2022-10-31T09:34:39;12.20;;;9.53;;
7517;SDS011;3800;48.922;9.444;2022-10-31T09:37:07;12.50;;;9.50;;
7517;SDS011;3800;48.922;9.444;2022-10-31T09:39:34;10.53;;;9.43;;
7517;SDS011;3800;48.922;9.444;2022-10-31T09:42:07;13.40;;;9.87;;
7517;SDS011;3800;48.922;9.444;2022-10-31T09:44:51;12.53;;;9.27;;
7517;SDS011;3800;48.922;9.444;2022-10-31T09:47:25;13.50;;;9.63;;
7517;SDS011;3800;48.922;9.444;2022-10-31T09:49:58;11.00;;;9.90;;
7517;SDS011;3800;48.922;9.444;2022-10-31T09:52:32;13.47;;;9.47;;
7517;SDS011;3800;48.922;9.444;2022-10-31T09:55:03;11.97;;;10.07;;
7517;SDS011;3800;48.922;9.444;2022-10-31T09:57:32;12.27;;;8.80;;
7517;SDS011;3800;48.922;9.444;2022-10-31T10:00:01;12.70;;;9.57;;
7517;SDS011;3800;48.922;9.444;2022-10-31T10:02:29;10.83;;;8.60;;
7517;SDS011;3800;48.922;9.444;2022-10-31T10:04:58;9.47;;;8.40;;
7517;SDS011;3800;48.922;9.444;2022-10-31T10:07:28;10.33;;;8.47;;
7517;SDS011;3800;48.922;9.444;2022-10-31T10:10:14;9.80;;;7.80;;
7517;SDS011;3800;48.922;9.444;2022-10-31T10:12:47;12.03;;;8.70;;
7517;SDS011;3800;48.922;9.444;2022-10-31T10:15:21;11.83;;;8.37;;
7517;SDS011;3800;48.922;9.444;2022-10-31T10:17:50;12.90;;;7.97;;
7517;SDS011;3800;48.922;9.444;2022-10-31T10:20:21;10.20;;;8.20;;
7517;SDS011;3800;48.922;9.444;2022-10-31T10:22:52;12.27;;;8.77;;
7517;SDS011;3800;48.922;9.444;2022-10-31T10:25:38;12.43;;;8.70;;
7517;SDS011;3800;48.922;9.444;2022-10-31T10:28:17;14.03;;;8.10;;
7517;SDS011;3800;48.922;9.444;2022-10-31T10:31:01;12.67;;;8.00;;
7517;SDS011;3800;48.922;9.444;2022-10-31T10:33:30;12.40;;;8.00;;
7517;SDS011;3800;48.922;9.444;2022-10-31T10:35:59;9.17;;;8.07;;
7517;SDS011;3800;48.922;9.444;2022-10-31T10:38:34;12.00;;;7.60;;
7517;SDS011;3800;48.922;9.444;2022-10-31T10:41:08;12.57;;;7.77;;
7517;SDS011;3800;48.922;9.444;2022-10-31T10:43:33;13.03;;;7.97;;
7517;SDS011;3800;48.922;9.444;2022-10-31T10:48:41;10.17;;;7.70;;
7517;SDS011;3800;48.922;9.444;2022-10-31T10:51:12;11.10;;;7.63;;
7517;SDS011;3800;48.922;9.444;2022-10-31T10:53:57;10.57;;;7.53;;
7517;SDS011;3800;48.922;9.444;2022-10-31T10:56:33;10.40;;;8.00;;
7517;SDS011;3800;48.922;9.444;2022-10-31T10:58:58;11.60;;;7.70;;
7517;SDS011;3800;48.922;9.444;2022-10-31T11:01:26;13.23;;;8.33;;
7517;SDS011;3800;48.922;9.444;2022-10-31T11:03:54;15.83;;;8.40;;
7517;SDS011;3800;48.922;9.444;2022-10-31T11:06:22;10.80;;;7.57;;
7517;SDS011;3800;48.922;9.444;2022-10-31T11:08:49;9.27;;;7.37;;
7517;SDS011;3800;48.922;9.444;2022-10-31T11:14:00;11.80;;;7.63;;
7517;SDS011;3800;48.922;9.444;2022-10-31T11:16:35;10.90;;;7.37;;
7517;SDS011;3800;48.922;9.444;2022-10-31T11:19:12;11.10;;;7.63;;
7517;SDS011;3800;48.922;9.444;2022-10-31T11:21:42;11.37;;;7.13;;
7517;SDS011;3800;48.922;9.444;2022-10-31T11:24:12;10.23;;;6.93;;
7517;SDS011;3800;48.922;9.444;2022-10-31T11:26:46;10.70;;;7.10;;
7517;SDS011;3800;48.922;9.444;2022-10-31T11:29:15;10.57;;;6.80;;
7517;SDS011;3800;48.922;9.444;2022-10-31T11:31:51;11.37;;;7.40;;
7517;SDS011;3800;48.922;9.444;2022-10-31T11:34:25;8.40;;;6.60;;
7517;SDS011;3800;48.922;9.444;2022-10-31T11:36:54;11.40;;;6.20;;
7517;SDS011;3800;48.922;9.444;2022-10-31T11:39:23;12.73;;;6.97;;
7517;SDS011;3800;48.922;9.444;2022-10-31T11:41:49;11.43;;;7.10;;
7517;SDS011;3800;48.922;9.444;2022-10-31T11:44:19;9.90;;;7.10;;
7517;SDS011;3800;48.922;9.444;2022-10-31T11:46:50;8.87;;;6.83;;
7517;SDS011;3800;48.922;9.444;2022-10-31T11:49:18;10.77;;;6.63;;
7517;SDS011;3800;48.922;9.444;2022-10-31T11:51:47;9.33;;;5.90;;
7517;SDS011;3800;48.922;9.444;2022-10-31T11:54:20;9.77;;;6.27;;
7517;SDS011;3800;48.922;9.444;2022-10-31T11:56:47;11.30;;;7.40;;
7517;SDS011;3800;48.922;9.444;2022-10-31T11:59:18;10.67;;;6.97;;
7517;SDS011;3800;48.922;9.444;2022-10-31T12:01:48;9.93;;;7.63;;
7517;SDS011;3800;48.922;9.444;2022-10-31T12:04:15;8.93;;;7.13;;
7517;SDS011;3800;48.922;9.444;2022-10-31T12:06:43;9.27;;;7.63;;
7517;SDS011;3800;48.922;9.444;2022-10-31T12:09:15;9.33;;;7.00;;
7517;SDS011;3800;48.922;9.444;2022-10-31T12:11:46;13.20;;;7.20;;
7517;SDS011;3800;48.922;9.444;2022-10-31T12:14:34;11.33;;;7.03;;
7517;SDS011;3800;48.922;9.444;2022-10-31T12:17:14;9.73;;;6.77;;
7517;SDS011;3800;48.922;9.444;2022-10-31T12:19:48;11.07;;;7.60;;
7517;SDS011;3800;48.922;9.444;2022-10-31T12:22:20;8.90;;;7.20;;
7517;SDS011;3800;48.922;9.444;2022-10-31T12:24:53;9.50;;;6.87;;
7517;SDS011;3800;48.922;9.444;2022-10-31T12:27:30;13.30;;;6.93;;
7517;SDS011;3800;48.922;9.444;2022-10-31T12:30:13;12.10;;;7.90;;
7517;SDS011;3800;48.922;9.444;2022-10-31T12:32:51;9.87;;;7.23;;
7517;SDS011;3800;48.922;9.444;2022-10-31T12:37:53;11.50;;;7.77;;
7517;SDS011;3800;48.922;9.444;2022-10-31T12:40:29;11.37;;;7.67;;
7517;SDS011;3800;48.922;9.444;2022-10-31T12:45:53;7.37;;;6.47;;
7517;SDS011;3800;48.922;9.444;2022-10-31T12:51:02;8.80;;;6.47;;
7517;SDS011;3800;48.922;9.444;2022-10-31T12:53:35;8.97;;;6.37;;
7517;SDS011;3800;48.922;9.444;2022-10-31T12:58:54;8.87;;;6.90;;
7517;SDS011;3800;48.922;9.444;2022-10-31T13:01:26;9.93;;;6.20;;
7517;SDS011;3800;48.922;9.444;2022-10-31T13:06:45;13.40;;;6.80;;
7517;SDS011;3800;48.922;9.444;2022-10-31T13:09:13;12.63;;;6.00;;
7517;SDS011;3800;48.922;9.444;2022-10-31T13:11:46;14.10;;;6.87;;
7517;SDS011;3800;48.922;9.444;2022-10-31T13:14:21;11.43;;;6.63;;
7517;SDS011;3800;48.922;9.444;2022-10-31T13:16:46;11.37;;;6.60;;
7517;SDS011;3800;48.922;9.444;2022-10-31T13:19:15;12.40;;;6.97;;
7517;SDS011;3800;48.922;9.444;2022-10-31T13:22:00;10.20;;;6.57;;
7517;SDS011;3800;48.922;9.444;2022-10-31T13:24:30;8.73;;;6.37;;
7517;SDS011;3800;48.922;9.444;2022-10-31T13:26:55;11.53;;;6.67;;
7517;SDS011;3800;48.922;9.444;2022-10-31T13:29:24;9.27;;;5.93;;
7517;SDS011;3800;48.922;9.444;2022-10-31T13:31:50;7.70;;;6.33;;
7517;SDS011;3800;48.922;9.444;2022-10-31T13:34:23;11.40;;;6.67;;
7517;SDS011;3800;48.922;9.444;2022-10-31T13:37:06;13.87;;;6.77;;
7517;SDS011;3800;48.922;9.444;2022-10-31T13:39:40;11.87;;;6.77;;
7517;SDS011;3800;48.922;9.444;2022-10-31T13:42:13;9.33;;;6.10;;
7517;SDS011;3800;48.922;9.444;2022-10-31T13:44:44;9.57;;;5.93;;
7517;SDS011;3800;48.922;9.444;2022-10-31T13:49:50;8.33;;;6.47;;
7517;SDS011;3800;48.922;9.444;2022-10-31T13:52:24;9.40;;;5.97;;
7517;SDS011;3800;48.922;9.444;2022-10-31T13:54:50;8.20;;;5.93;;
7517;SDS011;3800;48.922;9.444;2022-10-31T13:57:21;8.97;;;6.50;;
7517;SDS011;3800;48.922;9.444;2022-10-31T13:59:52;10.43;;;6.43;;
7517;SDS011;3800;48.922;9.444;2022-10-31T14:02:23;11.73;;;6.03;;
7517;SDS011;3800;48.922;9.444;2022-10-31T14:04:50;14.00;;;6.83;;
7517;SDS011;3800;48.922;9.444;2022-10-31T14:07:17;10.77;;;6.90;;
7517;SDS011;3800;48.922;9.444;2022-10-31T14:09:52;9.83;;;7.17;;
7517;SDS011;3800;48.922;9.444;2022-10-31T14:12:23;11.47;;;6.80;;
7517;SDS011;3800;48.922;9.444;2022-10-31T14:14:52;14.90;;;6.90;;
7517;SDS011;3800;48.922;9.444;2022-10-31T14:17:20;16.10;;;7.00;;
7517;SDS011;3800;48.922;9.444;2022-10-31T14:22:30;8.37;;;6.80;;
7517;SDS011;3800;48.922;9.444;2022-10-31T14:24:57;10.30;;;6.80;;
7517;SDS011;3800;48.922;9.444;2022-10-31T14:32:34;9.27;;;6.40;;
7517;SDS011;3800;48.922;9.444;2022-10-31T14:35:01;10.43;;;6.57;;
7517;SDS011;3800;48.922;9.444;2022-10-31T14:38:05;8.20;;;5.90;;
7517;SDS011;3800;48.922;9.444;2022-10-31T14:40:50;10.33;;;6.47;;
7517;SDS011;3800;48.922;9.444;2022-10-31T14:43:16;9.87;;;6.50;;
7517;SDS011;3800;48.922;9.444;2022-10-31T14:46:01;10.80;;;6.90;;
7517;SDS011;3800;48.922;9.444;2022-10-31T14:48:33;9.63;;;6.67;;
7517;SDS011;3800;48.922;9.444;2022-10-31T14:50:59;7.03;;;6.03;;
7517;SDS011;3800;48.922;9.444;2022-10-31T14:53:28;9.33;;;6.53;;
7517;SDS011;3800;48.922;9.444;2022-10-31T14:55:59;12.43;;;6.07;;
7517;SDS011;3800;48.922;9.444;2022-10-31T14:58:34;12.17;;;6.53;;
7517;SDS011;3800;48.922;9.444;2022-10-31T15:01:00;9.53;;;6.27;;
7517;SDS011;3800;48.922;9.444;2022-10-31T15:03:31;9.77;;;5.83;;
7517;SDS011;3800;48.922;9.444;2022-10-31T15:06:04;9.00;;;6.97;;
7517;SDS011;3800;48.922;9.444;2022-10-31T15:08:32;14.43;;;6.47;;
7517;SDS011;3800;48.922;9.444;2022-10-31T15:11:03;9.87;;;6.27;;
7517;SDS011;3800;48.922;9.444;2022-10-31T15:13:30;8.43;;;6.00;;
7517;SDS011;3800;48.922;9.444;2022-10-31T15:15:58;8.93;;;5.63;;
7517;SDS011;3800;48.922;9.444;2022-10-31T15:18:26;8.27;;;5.77;;
7517;SDS011;3800;48.922;9.444;2022-10-31T15:20:54;8.23;;;5.70;;
7517;SDS011;3800;48.922;9.444;2022-10-31T15:23:25;9.27;;;6.40;;
7517;SDS011;3800;48.922;9.444;2022-10-31T15:25:57;8.77;;;6.50;;
7517;SDS011;3800;48.922;9.444;2022-10-31T15:28:23;13.67;;;6.67;;
7517;SDS011;3800;48.922;9.444;2022-10-31T15:30:52;11.37;;;6.17;;
7517;SDS011;3800;48.922;9.444;2022-10-31T15:33:19;10.40;;;6.60;;
7517;SDS011;3800;48.922;9.444;2022-10-31T15:35:54;10.37;;;6.47;;
7517;SDS011;3800;48.922;9.444;2022-10-31T15:38:29;8.33;;;5.67;;
7517;SDS011;3800;48.922;9.444;2022-10-31T15:40:58;11.53;;;6.43;;
7517;SDS011;3800;48.922;9.444;2022-10-31T15:43:27;7.67;;;5.90;;
7517;SDS011;3800;48.922;9.444;2022-10-31T15:45:59;10.80;;;6.43;;
7517;SDS011;3800;48.922;9.444;2022-10-31T15:48:22;9.97;;;6.20;;
7517;SDS011;3800;48.922;9.444;2022-10-31T15:50:52;9.87;;;6.13;;
7517;SDS011;3800;48.922;9.444;2022-10-31T15:53:26;9.47;;;6.20;;
7517;SDS011;3800;48.922;9.444;2022-10-31T15:56:05;10.87;;;6.63;;
7517;SDS011;3800;48.922;9.444;2022-10-31T15:58:33;10.93;;;6.17;;